sensor_id;sensor_type;location;lat;lon;timestamp;P1;durP1;ratioP1;P2;durP2;ratioP2
55633;SDS011;41504;53.162;6.788;2023-03-03T00:00:03;52.38;;;21.73;;
55633;SDS011;41504;53.162;6.788;2023-03-03T00:02:29;67.95;;;21.88;;
55633;SDS011;41504;53.162;6.788;2023-03-03T00:04:55;75.55;;;20.27;;
55633;SDS011;41504;53.162;6.788;2023-03-03T00:07:21;40.95;;;16.70;;
55633;SDS011;41504;53.162;6.788;2023-03-03T00:09:47;58.35;;;17.73;;
55633;SDS011;41504;53.162;6.788;2023-03-03T00:12:24;60.22;;;16.08;;
55633;SDS011;41504;53.162;6.788;2023-03-03T00:14:51;57.00;;;16.10;;
55633;SDS011;41504;53.162;6.788;2023-03-03T00:17:21;52.03;;;16.48;;
55633;SDS011;41504;53.162;6.788;2023-03-03T00:19:51;78.25;;;17.55;;
55633;SDS011;41504;53.162;6.788;2023-03-03T00:22:34;46.35;;;16.08;;
55633;SDS011;41504;53.162;6.788;2023-03-03T00:25:34;32.17;;;13.82;;
55633;SDS011;41504;53.162;6.788;2023-03-03T00:27:54;35.30;;;16.35;;
55633;SDS011;41504;53.162;6.788;2023-03-03T00:30:25;32.33;;;15.40;;
55633;SDS011;41504;53.162;6.788;2023-03-03T00:32:53;42.45;;;14.93;;
55633;SDS011;41504;53.162;6.788;2023-03-03T00:35:38;71.63;;;16.52;;
55633;SDS011;41504;53.162;6.788;2023-03-03T00:38:11;42.75;;;15.57;;
55633;SDS011;41504;53.162;6.788;2023-03-03T00:40:41;63.50;;;16.98;;
55633;SDS011;41504;53.162;6.788;2023-03-03T00:43:20;38.78;;;15.80;;
55633;SDS011;41504;53.162;6.788;2023-03-03T00:45:59;61.03;;;17.02;;
55633;SDS011;41504;53.162;6.788;2023-03-03T00:48:30;49.70;;;16.40;;
55633;SDS011;41504;53.162;6.788;2023-03-03T00:53:53;48.08;;;16.15;;
55633;SDS011;41504;53.162;6.788;2023-03-03T00:56:20;110.85;;;19.67;;
55633;SDS011;41504;53.162;6.788;2023-03-03T00:58:46;106.30;;;18.98;;
55633;SDS011;41504;53.162;6.788;2023-03-03T01:01:15;54.42;;;15.52;;
55633;SDS011;41504;53.162;6.788;2023-03-03T01:03:41;46.17;;;15.98;;
55633;SDS011;41504;53.162;6.788;2023-03-03T01:06:07;69.95;;;17.95;;
55633;SDS011;41504;53.162;6.788;2023-03-03T01:08:34;43.65;;;16.42;;
55633;SDS011;41504;53.162;6.788;2023-03-03T01:11:03;31.00;;;16.80;;
55633;SDS011;41504;53.162;6.788;2023-03-03T01:13:32;42.47;;;15.10;;
55633;SDS011;41504;53.162;6.788;2023-03-03T01:16:00;62.15;;;17.65;;
55633;SDS011;41504;53.162;6.788;2023-03-03T01:18:27;70.10;;;17.95;;
55633;SDS011;41504;53.162;6.788;2023-03-03T01:20:53;80.00;;;19.00;;
55633;SDS011;41504;53.162;6.788;2023-03-03T01:23:19;68.18;;;18.60;;
55633;SDS011;41504;53.162;6.788;2023-03-03T01:25:45;63.30;;;17.10;;
55633;SDS011;41504;53.162;6.788;2023-03-03T01:28:10;91.40;;;17.95;;
55633;SDS011;41504;53.162;6.788;2023-03-03T01:30:36;71.03;;;18.30;;
55633;SDS011;41504;53.162;6.788;2023-03-03T01:33:02;58.95;;;17.88;;
55633;SDS011;41504;53.162;6.788;2023-03-03T01:35:28;53.03;;;14.65;;
55633;SDS011;41504;53.162;6.788;2023-03-03T01:37:54;64.00;;;16.40;;
55633;SDS011;41504;53.162;6.788;2023-03-03T01:40:24;162.13;;;17.23;;
55633;SDS011;41504;53.162;6.788;2023-03-03T01:42:55;72.43;;;14.85;;
55633;SDS011;41504;53.162;6.788;2023-03-03T01:45:30;131.07;;;16.25;;
55633;SDS011;41504;53.162;6.788;2023-03-03T01:48:16;176.82;;;16.27;;
55633;SDS011;41504;53.162;6.788;2023-03-03T01:50:56;50.58;;;12.70;;
55633;SDS011;41504;53.162;6.788;2023-03-03T01:53:27;148.52;;;16.85;;
55633;SDS011;41504;53.162;6.788;2023-03-03T01:56:06;18.00;;;10.30;;
55633;SDS011;41504;53.162;6.788;2023-03-03T01:58:34;221.68;;;20.65;;
55633;SDS011;41504;53.162;6.788;2023-03-03T02:01:05;54.70;;;12.27;;
55633;SDS011;41504;53.162;6.788;2023-03-03T02:03:33;59.15;;;12.20;;
55633;SDS011;41504;53.162;6.788;2023-03-03T02:06:02;120.65;;;13.40;;
55633;SDS011;41504;53.162;6.788;2023-03-03T02:08:32;38.67;;;11.32;;
55633;SDS011;41504;53.162;6.788;2023-03-03T02:11:05;72.93;;;13.00;;
55633;SDS011;41504;53.162;6.788;2023-03-03T02:13:32;83.82;;;12.07;;
55633;SDS011;41504;53.162;6.788;2023-03-03T02:15:57;126.78;;;15.07;;
55633;SDS011;41504;53.162;6.788;2023-03-03T02:18:23;66.95;;;12.23;;
55633;SDS011;41504;53.162;6.788;2023-03-03T02:23:23;64.45;;;11.80;;
55633;SDS011;41504;53.162;6.788;2023-03-03T02:26:27;100.00;;;14.00;;
55633;SDS011;41504;53.162;6.788;2023-03-03T02:28:55;93.85;;;12.98;;
55633;SDS011;41504;53.162;6.788;2023-03-03T02:31:22;87.30;;;13.57;;
55633;SDS011;41504;53.162;6.788;2023-03-03T02:33:50;188.85;;;18.73;;
55633;SDS011;41504;53.162;6.788;2023-03-03T02:36:24;116.43;;;16.80;;
55633;SDS011;41504;53.162;6.788;2023-03-03T02:44:21;82.55;;;15.88;;
55633;SDS011;41504;53.162;6.788;2023-03-03T02:46:49;91.80;;;14.45;;
55633;SDS011;41504;53.162;6.788;2023-03-03T02:49:22;152.90;;;18.65;;
55633;SDS011;41504;53.162;6.788;2023-03-03T02:51:50;47.03;;;12.80;;
55633;SDS011;41504;53.162;6.788;2023-03-03T02:54:21;136.65;;;16.23;;
55633;SDS011;41504;53.162;6.788;2023-03-03T02:56:48;143.88;;;14.65;;
55633;SDS011;41504;53.162;6.788;2023-03-03T02:59:14;161.45;;;14.95;;
55633;SDS011;41504;53.162;6.788;2023-03-03T03:01:40;68.45;;;11.25;;
55633;SDS011;41504;53.162;6.788;2023-03-03T03:04:10;127.13;;;12.93;;
55633;SDS011;41504;53.162;6.788;2023-03-03T03:06:40;86.05;;;11.43;;
55633;SDS011;41504;53.162;6.788;2023-03-03T03:09:07;80.80;;;11.85;;
55633;SDS011;41504;53.162;6.788;2023-03-03T03:11:34;66.55;;;12.40;;
55633;SDS011;41504;53.162;6.788;2023-03-03T03:14:01;108.97;;;13.23;;
55633;SDS011;41504;53.162;6.788;2023-03-03T03:16:28;89.50;;;11.30;;
55633;SDS011;41504;53.162;6.788;2023-03-03T03:18:53;105.28;;;11.55;;
55633;SDS011;41504;53.162;6.788;2023-03-03T03:21:20;49.47;;;10.00;;
55633;SDS011;41504;53.162;6.788;2023-03-03T03:23:45;79.07;;;11.40;;
55633;SDS011;41504;53.162;6.788;2023-03-03T03:26:11;143.20;;;13.82;;
55633;SDS011;41504;53.162;6.788;2023-03-03T03:28:37;99.72;;;11.45;;
55633;SDS011;41504;53.162;6.788;2023-03-03T03:31:03;50.50;;;10.45;;
55633;SDS011;41504;53.162;6.788;2023-03-03T03:33:30;47.20;;;11.00;;
55633;SDS011;41504;53.162;6.788;2023-03-03T03:35:56;46.67;;;11.30;;
55633;SDS011;41504;53.162;6.788;2023-03-03T03:38:23;96.13;;;12.55;;
55633;SDS011;41504;53.162;6.788;2023-03-03T03:40:51;129.85;;;15.02;;
55633;SDS011;41504;53.162;6.788;2023-03-03T03:43:17;65.72;;;11.50;;
55633;SDS011;41504;53.162;6.788;2023-03-03T03:45:43;83.50;;;12.82;;
55633;SDS011;41504;53.162;6.788;2023-03-03T03:48:09;67.95;;;11.45;;
55633;SDS011;41504;53.162;6.788;2023-03-03T03:50:36;50.30;;;10.90;;
55633;SDS011;41504;53.162;6.788;2023-03-03T03:53:02;61.15;;;12.20;;
55633;SDS011;41504;53.162;6.788;2023-03-03T03:55:29;36.55;;;11.13;;
55633;SDS011;41504;53.162;6.788;2023-03-03T03:57:55;82.15;;;13.57;;
55633;SDS011;41504;53.162;6.788;2023-03-03T04:00:21;45.28;;;11.82;;
55633;SDS011;41504;53.162;6.788;2023-03-03T04:02:48;91.63;;;14.07;;
55633;SDS011;41504;53.162;6.788;2023-03-03T04:05:14;53.17;;;12.65;;
55633;SDS011;41504;53.162;6.788;2023-03-03T04:07:40;58.00;;;12.45;;
55633;SDS011;41504;53.162;6.788;2023-03-03T04:10:06;49.78;;;11.88;;
55633;SDS011;41504;53.162;6.788;2023-03-03T04:12:32;60.75;;;12.55;;
55633;SDS011;41504;53.162;6.788;2023-03-03T04:15:12;111.30;;;13.95;;
55633;SDS011;41504;53.162;6.788;2023-03-03T04:17:39;109.22;;;12.48;;
55633;SDS011;41504;53.162;6.788;2023-03-03T04:20:05;114.75;;;14.63;;
55633;SDS011;41504;53.162;6.788;2023-03-03T04:22:33;81.35;;;11.77;;
55633;SDS011;41504;53.162;6.788;2023-03-03T04:25:00;56.65;;;10.38;;
55633;SDS011;41504;53.162;6.788;2023-03-03T04:27:32;71.25;;;11.27;;
55633;SDS011;41504;53.162;6.788;2023-03-03T04:29:59;43.38;;;10.27;;
55633;SDS011;41504;53.162;6.788;2023-03-03T04:32:25;80.45;;;12.10;;
55633;SDS011;41504;53.162;6.788;2023-03-03T04:34:51;39.72;;;9.98;;
55633;SDS011;41504;53.162;6.788;2023-03-03T04:37:17;52.58;;;10.63;;
55633;SDS011;41504;53.162;6.788;2023-03-03T04:39:43;68.25;;;11.18;;
55633;SDS011;41504;53.162;6.788;2023-03-03T04:42:10;83.53;;;11.65;;
55633;SDS011;41504;53.162;6.788;2023-03-03T04:44:36;60.28;;;10.32;;
55633;SDS011;41504;53.162;6.788;2023-03-03T04:47:01;47.13;;;9.15;;
55633;SDS011;41504;53.162;6.788;2023-03-03T04:49:27;49.65;;;9.43;;
55633;SDS011;41504;53.162;6.788;2023-03-03T04:51:53;59.50;;;10.05;;
55633;SDS011;41504;53.162;6.788;2023-03-03T04:54:19;64.25;;;10.43;;
55633;SDS011;41504;53.162;6.788;2023-03-03T04:56:44;61.97;;;10.77;;
55633;SDS011;41504;53.162;6.788;2023-03-03T04:59:10;54.65;;;9.70;;
55633;SDS011;41504;53.162;6.788;2023-03-03T05:01:36;83.15;;;10.30;;
55633;SDS011;41504;53.162;6.788;2023-03-03T05:04:03;60.35;;;9.88;;
55633;SDS011;41504;53.162;6.788;2023-03-03T05:06:29;69.85;;;9.88;;
55633;SDS011;41504;53.162;6.788;2023-03-03T05:08:54;81.57;;;10.63;;
55633;SDS011;41504;53.162;6.788;2023-03-03T05:11:20;70.03;;;10.20;;
55633;SDS011;41504;53.162;6.788;2023-03-03T05:13:46;58.00;;;10.73;;
55633;SDS011;41504;53.162;6.788;2023-03-03T05:16:11;48.13;;;8.95;;
55633;SDS011;41504;53.162;6.788;2023-03-03T05:18:38;63.53;;;9.70;;
55633;SDS011;41504;53.162;6.788;2023-03-03T05:21:04;65.40;;;10.15;;
55633;SDS011;41504;53.162;6.788;2023-03-03T05:23:30;50.17;;;9.15;;
55633;SDS011;41504;53.162;6.788;2023-03-03T05:25:55;49.65;;;9.90;;
55633;SDS011;41504;53.162;6.788;2023-03-03T05:28:21;46.97;;;8.95;;
55633;SDS011;41504;53.162;6.788;2023-03-03T05:30:47;67.82;;;9.45;;
55633;SDS011;41504;53.162;6.788;2023-03-03T05:33:13;58.40;;;9.48;;
55633;SDS011;41504;53.162;6.788;2023-03-03T05:35:40;54.53;;;8.90;;
55633;SDS011;41504;53.162;6.788;2023-03-03T05:38:06;74.47;;;9.25;;
55633;SDS011;41504;53.162;6.788;2023-03-03T05:40:32;34.60;;;7.95;;
55633;SDS011;41504;53.162;6.788;2023-03-03T05:42:58;52.00;;;8.95;;
55633;SDS011;41504;53.162;6.788;2023-03-03T05:45:23;69.78;;;10.10;;
55633;SDS011;41504;53.162;6.788;2023-03-03T05:47:50;30.15;;;7.40;;
55633;SDS011;41504;53.162;6.788;2023-03-03T05:50:16;47.10;;;8.57;;
55633;SDS011;41504;53.162;6.788;2023-03-03T05:52:43;56.03;;;8.15;;
55633;SDS011;41504;53.162;6.788;2023-03-03T05:55:09;32.65;;;7.60;;
55633;SDS011;41504;53.162;6.788;2023-03-03T05:57:35;24.27;;;7.30;;
55633;SDS011;41504;53.162;6.788;2023-03-03T06:00:04;50.03;;;7.88;;
55633;SDS011;41504;53.162;6.788;2023-03-03T06:02:30;45.28;;;7.85;;
55633;SDS011;41504;53.162;6.788;2023-03-03T06:04:56;48.08;;;8.48;;
55633;SDS011;41504;53.162;6.788;2023-03-03T06:07:21;49.28;;;8.25;;
55633;SDS011;41504;53.162;6.788;2023-03-03T06:09:47;39.85;;;7.75;;
55633;SDS011;41504;53.162;6.788;2023-03-03T06:12:13;26.08;;;6.90;;
55633;SDS011;41504;53.162;6.788;2023-03-03T06:14:38;26.67;;;7.40;;
55633;SDS011;41504;53.162;6.788;2023-03-03T06:17:04;16.85;;;6.05;;
55633;SDS011;41504;53.162;6.788;2023-03-03T06:19:30;20.88;;;6.18;;
55633;SDS011;41504;53.162;6.788;2023-03-03T06:21:56;26.35;;;5.85;;
55633;SDS011;41504;53.162;6.788;2023-03-03T06:24:22;22.77;;;5.25;;
55633;SDS011;41504;53.162;6.788;2023-03-03T06:26:50;20.30;;;5.47;;
55633;SDS011;41504;53.162;6.788;2023-03-03T06:29:16;22.38;;;6.10;;
55633;SDS011;41504;53.162;6.788;2023-03-03T06:31:42;36.33;;;6.00;;
55633;SDS011;41504;53.162;6.788;2023-03-03T06:34:08;29.77;;;5.90;;
55633;SDS011;41504;53.162;6.788;2023-03-03T06:36:34;46.30;;;6.80;;
55633;SDS011;41504;53.162;6.788;2023-03-03T06:39:00;20.38;;;6.10;;
55633;SDS011;41504;53.162;6.788;2023-03-03T06:41:26;34.00;;;6.45;;
55633;SDS011;41504;53.162;6.788;2023-03-03T06:43:52;35.20;;;6.38;;
55633;SDS011;41504;53.162;6.788;2023-03-03T06:46:17;45.55;;;7.30;;
55633;SDS011;41504;53.162;6.788;2023-03-03T06:48:43;37.55;;;6.28;;
55633;SDS011;41504;53.162;6.788;2023-03-03T06:51:19;23.13;;;5.82;;
55633;SDS011;41504;53.162;6.788;2023-03-03T06:53:47;53.45;;;6.97;;
55633;SDS011;41504;53.162;6.788;2023-03-03T06:56:14;59.60;;;7.38;;
55633;SDS011;41504;53.162;6.788;2023-03-03T06:58:41;71.57;;;7.80;;
55633;SDS011;41504;53.162;6.788;2023-03-03T07:01:12;42.58;;;6.60;;
55633;SDS011;41504;53.162;6.788;2023-03-03T07:03:40;54.20;;;7.53;;
55633;SDS011;41504;53.162;6.788;2023-03-03T07:06:39;38.75;;;6.93;;
55633;SDS011;41504;53.162;6.788;2023-03-03T07:08:58;59.08;;;7.10;;
55633;SDS011;41504;53.162;6.788;2023-03-03T07:11:24;44.30;;;6.93;;
55633;SDS011;41504;53.162;6.788;2023-03-03T07:13:51;46.05;;;7.22;;
55633;SDS011;41504;53.162;6.788;2023-03-03T07:16:19;48.22;;;7.82;;
55633;SDS011;41504;53.162;6.788;2023-03-03T07:18:54;47.20;;;7.88;;
55633;SDS011;41504;53.162;6.788;2023-03-03T07:21:34;45.63;;;7.32;;
55633;SDS011;41504;53.162;6.788;2023-03-03T07:24:17;33.90;;;6.97;;
55633;SDS011;41504;53.162;6.788;2023-03-03T07:26:51;37.22;;;7.22;;
55633;SDS011;41504;53.162;6.788;2023-03-03T07:29:24;41.72;;;6.72;;
55633;SDS011;41504;53.162;6.788;2023-03-03T07:31:51;38.15;;;6.50;;
55633;SDS011;41504;53.162;6.788;2023-03-03T07:34:23;45.60;;;6.88;;
55633;SDS011;41504;53.162;6.788;2023-03-03T07:39:45;35.28;;;6.25;;
55633;SDS011;41504;53.162;6.788;2023-03-03T07:42:24;23.55;;;5.80;;
55633;SDS011;41504;53.162;6.788;2023-03-03T07:47:55;18.90;;;5.85;;
55633;SDS011;41504;53.162;6.788;2023-03-03T07:50:43;16.25;;;5.88;;
55633;SDS011;41504;53.162;6.788;2023-03-03T07:53:32;13.50;;;6.30;;
55633;SDS011;41504;53.162;6.788;2023-03-03T07:56:01;10.43;;;5.95;;
55633;SDS011;41504;53.162;6.788;2023-03-03T07:58:35;13.27;;;6.80;;
55633;SDS011;41504;53.162;6.788;2023-03-03T08:03:59;14.57;;;6.68;;
55633;SDS011;41504;53.162;6.788;2023-03-03T08:09:43;11.55;;;6.97;;
55633;SDS011;41504;53.162;6.788;2023-03-03T08:14:35;11.63;;;6.50;;
55633;SDS011;41504;53.162;6.788;2023-03-03T08:19:56;14.82;;;6.97;;
55633;SDS011;41504;53.162;6.788;2023-03-03T08:25:00;11.15;;;6.43;;
55633;SDS011;41504;53.162;6.788;2023-03-03T08:27:26;9.73;;;6.45;;
55633;SDS011;41504;53.162;6.788;2023-03-03T08:29:52;9.45;;;5.97;;
55633;SDS011;41504;53.162;6.788;2023-03-03T08:32:17;9.38;;;5.47;;
55633;SDS011;41504;53.162;6.788;2023-03-03T08:34:43;10.38;;;6.38;;
55633;SDS011;41504;53.162;6.788;2023-03-03T08:37:09;10.52;;;6.35;;
55633;SDS011;41504;53.162;6.788;2023-03-03T08:39:35;11.65;;;7.38;;
55633;SDS011;41504;53.162;6.788;2023-03-03T08:42:01;10.32;;;6.78;;
55633;SDS011;41504;53.162;6.788;2023-03-03T08:44:26;10.13;;;6.63;;
55633;SDS011;41504;53.162;6.788;2023-03-03T08:46:52;11.07;;;7.65;;
55633;SDS011;41504;53.162;6.788;2023-03-03T08:49:18;13.55;;;7.15;;
55633;SDS011;41504;53.162;6.788;2023-03-03T08:51:45;10.60;;;7.50;;
55633;SDS011;41504;53.162;6.788;2023-03-03T08:54:11;11.27;;;7.00;;
55633;SDS011;41504;53.162;6.788;2023-03-03T08:56:36;12.65;;;7.57;;
55633;SDS011;41504;53.162;6.788;2023-03-03T08:59:02;10.40;;;6.97;;
55633;SDS011;41504;53.162;6.788;2023-03-03T09:01:28;10.93;;;7.05;;
55633;SDS011;41504;53.162;6.788;2023-03-03T09:03:54;10.38;;;7.03;;
55633;SDS011;41504;53.162;6.788;2023-03-03T09:06:20;11.73;;;7.30;;
55633;SDS011;41504;53.162;6.788;2023-03-03T09:08:46;12.27;;;7.60;;
55633;SDS011;41504;53.162;6.788;2023-03-03T09:11:12;12.48;;;8.13;;
55633;SDS011;41504;53.162;6.788;2023-03-03T09:13:38;11.43;;;7.53;;
55633;SDS011;41504;53.162;6.788;2023-03-03T09:16:14;11.85;;;7.80;;
55633;SDS011;41504;53.162;6.788;2023-03-03T09:18:40;12.15;;;8.05;;
55633;SDS011;41504;53.162;6.788;2023-03-03T09:23:54;10.65;;;7.70;;
55633;SDS011;41504;53.162;6.788;2023-03-03T09:26:23;14.00;;;8.50;;
55633;SDS011;41504;53.162;6.788;2023-03-03T09:29:08;10.77;;;7.28;;
55633;SDS011;41504;53.162;6.788;2023-03-03T09:34:15;12.57;;;7.45;;
55633;SDS011;41504;53.162;6.788;2023-03-03T09:36:45;11.10;;;7.40;;
55633;SDS011;41504;53.162;6.788;2023-03-03T09:39:13;12.50;;;7.35;;
55633;SDS011;41504;53.162;6.788;2023-03-03T09:44:39;12.85;;;6.85;;
55633;SDS011;41504;53.162;6.788;2023-03-03T09:58:40;11.63;;;7.25;;
55633;SDS011;41504;53.162;6.788;2023-03-03T10:01:34;10.93;;;7.03;;
55633;SDS011;41504;53.162;6.788;2023-03-03T10:07:14;11.45;;;6.57;;
55633;SDS011;41504;53.162;6.788;2023-03-03T10:16:12;10.73;;;7.47;;
55633;SDS011;41504;53.162;6.788;2023-03-03T10:18:51;13.35;;;7.63;;
55633;SDS011;41504;53.162;6.788;2023-03-03T10:26:59;11.23;;;6.45;;
55633;SDS011;41504;53.162;6.788;2023-03-03T10:43:59;11.13;;;6.03;;
55633;SDS011;41504;53.162;6.788;2023-03-03T10:55:42;12.02;;;4.70;;
55633;SDS011;41504;53.162;6.788;2023-03-03T11:04:21;10.25;;;4.70;;
55633;SDS011;41504;53.162;6.788;2023-03-03T11:06:54;12.35;;;5.18;;
55633;SDS011;41504;53.162;6.788;2023-03-03T11:12:25;13.68;;;4.65;;
55633;SDS011;41504;53.162;6.788;2023-03-03T11:18:23;8.48;;;4.40;;
55633;SDS011;41504;53.162;6.788;2023-03-03T11:31:53;11.38;;;3.95;;
55633;SDS011;41504;53.162;6.788;2023-03-03T11:37:21;6.47;;;2.17;;
55633;SDS011;41504;53.162;6.788;2023-03-03T11:40:03;5.50;;;1.90;;
55633;SDS011;41504;53.162;6.788;2023-03-03T11:45:33;3.78;;;1.60;;
55633;SDS011;41504;53.162;6.788;2023-03-03T11:50:50;6.88;;;2.00;;
55633;SDS011;41504;53.162;6.788;2023-03-03T11:58:47;4.75;;;1.50;;
55633;SDS011;41504;53.162;6.788;2023-03-03T12:01:46;5.68;;;1.52;;
55633;SDS011;41504;53.162;6.788;2023-03-03T12:04:28;4.22;;;1.40;;
55633;SDS011;41504;53.162;6.788;2023-03-03T12:18:30;3.45;;;1.30;;
55633;SDS011;41504;53.162;6.788;2023-03-03T12:21:06;5.00;;;1.50;;
55633;SDS011;41504;53.162;6.788;2023-03-03T12:26:57;7.22;;;1.55;;
55633;SDS011;41504;53.162;6.788;2023-03-03T12:29:40;7.80;;;1.65;;
55633;SDS011;41504;53.162;6.788;2023-03-03T12:35:02;4.63;;;1.23;;
55633;SDS011;41504;53.162;6.788;2023-03-03T12:40:18;7.65;;;1.80;;
55633;SDS011;41504;53.162;6.788;2023-03-03T12:48:24;7.35;;;1.98;;
55633;SDS011;41504;53.162;6.788;2023-03-03T12:51:03;7.43;;;1.40;;
55633;SDS011;41504;53.162;6.788;2023-03-03T12:54:11;6.40;;;1.40;;
55633;SDS011;41504;53.162;6.788;2023-03-03T12:57:15;8.70;;;1.90;;
55633;SDS011;41504;53.162;6.788;2023-03-03T13:02:39;8.43;;;1.63;;
55633;SDS011;41504;53.162;6.788;2023-03-03T13:07:44;9.07;;;1.48;;
55633;SDS011;41504;53.162;6.788;2023-03-03T13:10:17;6.10;;;1.50;;
55633;SDS011;41504;53.162;6.788;2023-03-03T13:15:34;6.25;;;1.50;;
55633;SDS011;41504;53.162;6.788;2023-03-03T13:20:36;7.20;;;1.40;;
55633;SDS011;41504;53.162;6.788;2023-03-03T13:23:17;6.22;;;1.73;;
55633;SDS011;41504;53.162;6.788;2023-03-03T13:26:04;7.07;;;1.85;;
55633;SDS011;41504;53.162;6.788;2023-03-03T13:31:25;8.05;;;1.73;;
55633;SDS011;41504;53.162;6.788;2023-03-03T13:33:59;8.73;;;1.90;;
55633;SDS011;41504;53.162;6.788;2023-03-03T13:39:19;11.88;;;2.53;;
55633;SDS011;41504;53.162;6.788;2023-03-03T13:41:54;10.48;;;2.08;;
55633;SDS011;41504;53.162;6.788;2023-03-03T13:44:35;7.40;;;1.90;;
55633;SDS011;41504;53.162;6.788;2023-03-03T13:55:52;14.27;;;2.10;;
55633;SDS011;41504;53.162;6.788;2023-03-03T13:58:27;8.52;;;1.85;;
55633;SDS011;41504;53.162;6.788;2023-03-03T14:01:20;14.68;;;2.40;;
55633;SDS011;41504;53.162;6.788;2023-03-03T14:06:25;10.93;;;2.53;;
55633;SDS011;41504;53.162;6.788;2023-03-03T14:14:03;10.98;;;2.40;;
55633;SDS011;41504;53.162;6.788;2023-03-03T14:17:02;13.30;;;2.60;;
55633;SDS011;41504;53.162;6.788;2023-03-03T14:27:37;18.25;;;3.38;;
55633;SDS011;41504;53.162;6.788;2023-03-03T14:31:09;13.25;;;3.92;;
55633;SDS011;41504;53.162;6.788;2023-03-03T14:40:40;16.83;;;2.85;;
55633;SDS011;41504;53.162;6.788;2023-03-03T14:43:25;17.92;;;3.20;;
55633;SDS011;41504;53.162;6.788;2023-03-03T14:48:52;17.50;;;3.30;;
55633;SDS011;41504;53.162;6.788;2023-03-03T14:51:26;10.65;;;2.85;;
55633;SDS011;41504;53.162;6.788;2023-03-03T14:54:05;16.90;;;3.28;;
55633;SDS011;41504;53.162;6.788;2023-03-03T14:56:36;16.60;;;2.80;;
55633;SDS011;41504;53.162;6.788;2023-03-03T15:04:33;15.07;;;2.78;;
55633;SDS011;41504;53.162;6.788;2023-03-03T15:06:59;12.82;;;3.03;;
55633;SDS011;41504;53.162;6.788;2023-03-03T15:09:55;21.30;;;3.20;;
55633;SDS011;41504;53.162;6.788;2023-03-03T15:12:22;14.55;;;3.05;;
55633;SDS011;41504;53.162;6.788;2023-03-03T15:17:38;17.63;;;3.28;;
55633;SDS011;41504;53.162;6.788;2023-03-03T15:28:11;17.73;;;3.65;;
55633;SDS011;41504;53.162;6.788;2023-03-03T15:36:03;18.55;;;3.50;;
55633;SDS011;41504;53.162;6.788;2023-03-03T15:50:03;16.35;;;3.55;;
55633;SDS011;41504;53.162;6.788;2023-03-03T15:52:46;19.70;;;3.08;;
55633;SDS011;41504;53.162;6.788;2023-03-03T15:58:02;14.13;;;3.78;;
55633;SDS011;41504;53.162;6.788;2023-03-03T16:01:01;15.68;;;3.30;;
55633;SDS011;41504;53.162;6.788;2023-03-03T16:03:45;14.73;;;2.97;;
55633;SDS011;41504;53.162;6.788;2023-03-03T16:08:57;19.15;;;3.20;;
55633;SDS011;41504;53.162;6.788;2023-03-03T16:12:20;18.08;;;3.20;;
55633;SDS011;41504;53.162;6.788;2023-03-03T16:14:58;14.93;;;3.55;;
55633;SDS011;41504;53.162;6.788;2023-03-03T16:25:38;19.10;;;3.85;;
55633;SDS011;41504;53.162;6.788;2023-03-03T16:31:12;14.70;;;3.17;;
55633;SDS011;41504;53.162;6.788;2023-03-03T16:33:54;15.82;;;4.00;;
55633;SDS011;41504;53.162;6.788;2023-03-03T16:42:28;23.88;;;4.53;;
55633;SDS011;41504;53.162;6.788;2023-03-03T17:01:27;21.42;;;3.88;;
55633;SDS011;41504;53.162;6.788;2023-03-03T17:06:39;27.13;;;5.88;;
55633;SDS011;41504;53.162;6.788;2023-03-03T17:17:56;23.05;;;4.88;;
55633;SDS011;41504;53.162;6.788;2023-03-03T17:20:46;22.20;;;4.25;;
55633;SDS011;41504;53.162;6.788;2023-03-03T17:23:38;21.83;;;4.53;;
55633;SDS011;41504;53.162;6.788;2023-03-03T17:26:51;25.17;;;4.55;;
55633;SDS011;41504;53.162;6.788;2023-03-03T17:38:05;27.08;;;5.75;;
55633;SDS011;41504;53.162;6.788;2023-03-03T17:46:30;22.85;;;5.28;;
55633;SDS011;41504;53.162;6.788;2023-03-03T17:54:41;25.75;;;5.53;;
55633;SDS011;41504;53.162;6.788;2023-03-03T17:59:44;22.88;;;4.90;;
55633;SDS011;41504;53.162;6.788;2023-03-03T18:14:35;34.63;;;5.88;;
55633;SDS011;41504;53.162;6.788;2023-03-03T18:25:19;26.45;;;4.95;;
55633;SDS011;41504;53.162;6.788;2023-03-03T18:28:14;35.47;;;6.45;;
55633;SDS011;41504;53.162;6.788;2023-03-03T18:37:06;29.20;;;7.05;;
55633;SDS011;41504;53.162;6.788;2023-03-03T18:42:41;26.20;;;5.93;;
55633;SDS011;41504;53.162;6.788;2023-03-03T18:50:32;23.98;;;5.68;;
55633;SDS011;41504;53.162;6.788;2023-03-03T18:55:47;38.33;;;7.90;;
55633;SDS011;41504;53.162;6.788;2023-03-03T18:58:41;33.28;;;8.35;;
55633;SDS011;41504;53.162;6.788;2023-03-03T19:06:29;28.95;;;5.38;;
55633;SDS011;41504;53.162;6.788;2023-03-03T19:09:19;27.63;;;5.10;;
55633;SDS011;41504;53.162;6.788;2023-03-03T19:12:15;21.77;;;5.15;;
55633;SDS011;41504;53.162;6.788;2023-03-03T19:14:47;26.58;;;6.15;;
55633;SDS011;41504;53.162;6.788;2023-03-03T19:20:04;25.27;;;5.13;;
55633;SDS011;41504;53.162;6.788;2023-03-03T19:22:48;27.00;;;5.22;;
55633;SDS011;41504;53.162;6.788;2023-03-03T19:25:26;28.23;;;5.55;;
55633;SDS011;41504;53.162;6.788;2023-03-03T19:28:02;25.10;;;6.05;;
55633;SDS011;41504;53.162;6.788;2023-03-03T19:41:58;25.90;;;6.90;;
55633;SDS011;41504;53.162;6.788;2023-03-03T19:48:20;21.30;;;5.20;;
55633;SDS011;41504;53.162;6.788;2023-03-03T19:51:00;23.67;;;3.97;;
55633;SDS011;41504;53.162;6.788;2023-03-03T19:56:44;20.27;;;4.32;;
55633;SDS011;41504;53.162;6.788;2023-03-03T19:59:15;18.15;;;4.03;;
55633;SDS011;41504;53.162;6.788;2023-03-03T20:15:19;22.88;;;4.95;;
55633;SDS011;41504;53.162;6.788;2023-03-03T20:26:11;19.98;;;6.35;;
55633;SDS011;41504;53.162;6.788;2023-03-03T20:50:34;23.02;;;4.30;;
55633;SDS011;41504;53.162;6.788;2023-03-03T20:59:52;19.38;;;4.47;;
55633;SDS011;41504;53.162;6.788;2023-03-03T21:04:25;20.63;;;4.60;;
55633;SDS011;41504;53.162;6.788;2023-03-03T21:06:52;29.88;;;7.47;;
55633;SDS011;41504;53.162;6.788;2023-03-03T21:11:56;17.52;;;4.15;;
55633;SDS011;41504;53.162;6.788;2023-03-03T21:14:24;13.75;;;2.95;;
55633;SDS011;41504;53.162;6.788;2023-03-03T21:16:53;18.85;;;3.78;;
55633;SDS011;41504;53.162;6.788;2023-03-03T21:21:50;13.80;;;3.00;;
55633;SDS011;41504;53.162;6.788;2023-03-03T21:24:17;13.27;;;3.22;;
55633;SDS011;41504;53.162;6.788;2023-03-03T21:26:57;17.95;;;3.33;;
55633;SDS011;41504;53.162;6.788;2023-03-03T21:29:28;17.63;;;3.85;;
55633;SDS011;41504;53.162;6.788;2023-03-03T21:37:01;16.23;;;3.13;;
55633;SDS011;41504;53.162;6.788;2023-03-03T21:39:38;14.60;;;3.25;;
55633;SDS011;41504;53.162;6.788;2023-03-03T21:42:07;16.13;;;3.65;;
55633;SDS011;41504;53.162;6.788;2023-03-03T21:44:47;29.67;;;8.57;;
55633;SDS011;41504;53.162;6.788;2023-03-03T21:47:16;16.13;;;4.68;;
55633;SDS011;41504;53.162;6.788;2023-03-03T21:49:44;22.13;;;5.13;;
55633;SDS011;41504;53.162;6.788;2023-03-03T21:52:12;15.00;;;4.65;;
55633;SDS011;41504;53.162;6.788;2023-03-03T21:54:40;39.10;;;13.43;;
55633;SDS011;41504;53.162;6.788;2023-03-03T21:57:16;23.85;;;7.65;;
55633;SDS011;41504;53.162;6.788;2023-03-03T21:59:42;23.23;;;6.30;;
55633;SDS011;41504;53.162;6.788;2023-03-03T22:02:08;16.95;;;3.70;;
55633;SDS011;41504;53.162;6.788;2023-03-03T22:04:34;21.10;;;6.63;;
55633;SDS011;41504;53.162;6.788;2023-03-03T22:07:02;27.90;;;8.77;;
55633;SDS011;41504;53.162;6.788;2023-03-03T22:09:32;42.20;;;14.85;;
55633;SDS011;41504;53.162;6.788;2023-03-03T22:11:58;20.75;;;5.82;;